^^
LKKV - Karlovy Vary, Czech Republic
Entfernung von Station: O 36km
Aktualisierung: 16.12.2018 04:00
Bedeckt
Bedeckt
 Wind von SO
Wind: SO 9 km/h
Temperatur: -4°C
Windkühle: -8°C
Taupunkt: -6°C
Luftfeuchte: 86%
Luftdruck: 1015 hPa
Wolken: Bedeckt
Sicht: 10 km
Wolken Details: Bedeckt 396 m
2018/12/16 03:00 LKKV 160300Z 14005KT 100V160 9999 OVC013 M04/M06 Q1015 R29///////
EDQM - Hof, Germany
Entfernung von Station: W 40km
Aktualisierung: 15.12.2018 18:50
nicht aktuell
Bedeckt
Bedeckt
 Wind von O
Wind: O 6 km/h
Temperatur: -4°C
Taupunkt: -6°C
Luftfeuchte: 86%
Luftdruck: 1021 hPa
Wolken: Bedeckt
Sicht: 7 km
Wolken Details: Bedeckt 1006 m
2018/12/15 17:50 EDQM 151750Z 08003KT 050V120 7000 OVC033 M04/M06 Q1021
 
ETIC - Grafenwoehr, Germany
Entfernung von Station: SSW 72km
Aktualisierung: 16.12.2018 03:56
Klar
Klar
 Wind von ONO
Wind: ONO 6 km/h
Wolken: Klar
Sicht: 10 km
2018/12/16 02:56 ETIC 160256Z AUTO 07003KT 9999 CLR M A3001 RMK AO2 SLPNO ALSTG ESTMD 57017 $
EDAC - Altenburg-Nobitz, Germany
Entfernung von Station: N 80km
Aktualisierung: 16.12.2018 04:20
Bedeckt
Bedeckt
 Wind von OSO
Wind: OSO 7 km/h
Temperatur: -1°C
Windkühle: -4°C
Taupunkt: -6°C
Luftfeuchte: 69%
Luftdruck: 1017 hPa
Wolken: Bedeckt
Sicht: 10 km
Wolken Details: Bedeckt 945 m
2018/12/16 03:20 EDAC 160320Z AUTO 12004KT 080V140 9999 // OVC031/// M01/M06 Q1017
 
LKLN - Plzen Line, Czech Republic
Entfernung von Station: SO 88km
Aktualisierung: 16.12.2018 04:00
Bedeckt
Bedeckt
 Wind von O
Wind: O 11 km/h
Temperatur: -2°C
Windkühle: -6°C
Taupunkt: -5°C
Luftfeuchte: 80%
Luftdruck: 1018 hPa
Wolken: Bedeckt
Sicht: 10 km
Wolken Details: Bedeckt 701 m
2018/12/16 03:00 LKLN 160300Z AUTO 10006KT 9999 OVC023 M02/M05 Q1018
ETIH - Hohenfels (usa-A, Germany
Entfernung von Station: SSW 124km
Aktualisierung: 16.12.2018 03:56
stark bewölkt
stark bewölkt
 Wind von calm
Wind: Windstill
Wolken: stark bewölkt
Sicht: 10 km
Wolken Details: stark bewölkt 5791 m
2018/12/16 02:56 ETIH 160256Z AUTO 00000KT 9999 BKN190 M A3002 RMK AO2 SLPNO ALSTG ESTMD 57024 $
 
EDDE - Erfurt/Bindersleben, Germany
Entfernung von Station: NW 129km
Aktualisierung: 16.12.2018 04:20
Klar
Klar
 Wind von SO
Wind: SO 7 km/h
Temperatur: -4°C
Windkühle: -7°C
Taupunkt: -7°C
Luftfeuchte: 80%
Luftdruck: 1016 hPa
Zusammenfassung: Klar
Sicht: mehr als 10 km
2018/12/16 03:20 EDDE 160320Z 13004KT 100V180 CAVOK M04/M07 Q1016
EDDP - Leipzig/Schkeudidtz, Germany
Entfernung von Station: N 129km
Aktualisierung: 16.12.2018 04:20
Bedeckt
Bedeckt
 Wind von O
Wind: O 15 km/h
Temperatur: -1°C
Windkühle: -6°C
Taupunkt: -2°C
Luftfeuchte: 93%
Luftdruck: 1018 hPa
Wolken: Bedeckt
Sicht: 8 km
Wolken Details: teils wolkig 274 m
Bedeckt 823 m
2018/12/16 03:20 EDDP 160320Z 10008KT 8000 FEW009 OVC027 M01/M02 Q1018 NOSIG
 
EDDN - Nuernberg, Germany
Entfernung von Station: SW 130km
Aktualisierung: 16.12.2018 04:20
Klar
Klar
 Wind von O
Wind: O 7 km/h
Temperatur: -5°C
Windkühle: -8°C
Taupunkt: -7°C
Luftfeuchte: 86%
Luftdruck: 1016 hPa
Zusammenfassung: Klar
Sicht: mehr als 10 km
2018/12/16 03:20 EDDN 160320Z 10004KT CAVOK M05/M07 Q1016
LKPR - Prague/Ruzyne, Czech Republic
Entfernung von Station: O 133km
Aktualisierung: 16.12.2018 04:30
Bedeckt
Bedeckt
 Wind von SO
Wind: SO 6 km/h
Temperatur: -3°C
Taupunkt: -6°C
Luftfeuchte: 80%
Luftdruck: 1018 hPa
Wolken: Bedeckt
Sicht: 10 km
Wolken Details: Bedeckt 762 m
2018/12/16 03:30 LKPR 160330Z 14003KT 9999 OVC025 M03/M06 Q1018 R24/29//95 R30/520195 NOSIG
 
EDDC - Dresden/Klotzsche, Germany
Entfernung von Station: NO 134km
Aktualisierung: 16.12.2018 04:20
Bedeckt
Bedeckt
 Wind von OSO
Wind: OSO 7 km/h
Temperatur: -2°C
Windkühle: -6°C
Taupunkt: -4°C
Luftfeuchte: 86%
Luftdruck: 1018 hPa
Wolken: Bedeckt
Sicht: 10 km
Wolken Details: Bedeckt 762 m
2018/12/16 03:20 EDDC 160320Z 11004KT 9999 OVC025 M02/M04 Q1018
Besucherstatistik
Besucher gesamt: 1.173.012
Besucher heute: 80
Besucher gestern: 652
gerade online: 8
Seitenaufrufe diese Seite: 3.934
counter Statistiken